createdAt,value
2018-06-17T03:00:58.971Z,0.00
2018-06-17T03:01:59.199Z,0.00
2018-06-17T03:02:59.266Z,0.00
2018-06-17T03:03:59.443Z,0.00
2018-06-17T03:04:59.690Z,5.63
2018-06-17T03:05:59.764Z,5.63
2018-06-17T03:06:59.997Z,5.63
2018-06-17T03:08:00.206Z,5.63
2018-06-17T03:09:00.336Z,5.63
2018-06-17T03:10:00.494Z,5.63
2018-06-17T03:11:00.682Z,5.63
2018-06-17T03:12:00.889Z,5.63
2018-06-17T03:13:00.953Z,5.63
2018-06-17T03:14:01.116Z,5.63
2018-06-17T03:15:01.329Z,5.63
2018-06-17T03:16:01.461Z,5.63
2018-06-17T03:17:01.647Z,5.63
2018-06-17T03:18:01.893Z,5.63
2018-06-17T03:19:01.985Z,5.63
2018-06-17T03:20:02.215Z,5.63
2018-06-17T03:21:02.379Z,5.63
2018-06-17T03:22:02.581Z,5.63
2018-06-17T03:23:02.810Z,5.63
2018-06-17T03:24:02.937Z,5.63
2018-06-17T03:25:03.037Z,5.63
2018-06-17T03:26:03.233Z,5.63
2018-06-17T03:27:03.431Z,5.63
2018-06-17T03:28:03.581Z,5.63
2018-06-17T03:29:03.780Z,5.63
2018-06-17T03:30:03.949Z,5.63
2018-06-17T03:31:04.075Z,5.63
2018-06-17T03:32:04.230Z,5.63
2018-06-17T03:33:04.402Z,5.63
2018-06-17T03:34:04.526Z,5.63
2018-06-17T03:35:04.751Z,5.63
2018-06-17T03:36:04.860Z,5.63
2018-06-17T03:37:05.059Z,5.63
2018-06-17T03:38:05.267Z,11.25
2018-06-17T03:39:05.383Z,11.25
2018-06-17T03:40:05.554Z,11.25
2018-06-17T03:41:05.768Z,16.88
2018-06-17T03:42:05.910Z,22.50
2018-06-17T03:43:06.143Z,28.13
2018-06-17T03:44:06.217Z,28.13
2018-06-17T03:45:06.454Z,33.75
2018-06-17T03:46:06.622Z,33.75
2018-06-17T03:47:06.738Z,33.75
2018-06-17T03:48:06.940Z,33.75
2018-06-17T03:49:07.053Z,33.75
2018-06-17T03:50:07.290Z,39.38
2018-06-17T03:51:07.417Z,45.00
2018-06-17T03:52:07.549Z,45.00
2018-06-17T03:53:07.801Z,50.63
2018-06-17T03:54:07.895Z,56.25
2018-06-17T03:55:08.129Z,56.25
2018-06-17T03:56:08.246Z,56.25
2018-06-17T03:57:08.490Z,61.88
2018-06-17T03:58:08.637Z,61.88
2018-06-17T03:59:08.837Z,61.88
2018-06-17T04:00:08.978Z,61.88
2018-06-17T04:01:09.196Z,67.50
2018-06-17T04:02:09.364Z,67.50
2018-06-17T04:03:09.516Z,67.50
2018-06-17T04:04:09.757Z,67.50
2018-06-17T04:05:09.884Z,67.50
2018-06-17T04:06:10.082Z,67.50
2018-06-17T04:07:10.301Z,67.50
2018-06-17T04:08:10.423Z,67.50
2018-06-17T04:09:10.622Z,73.13
2018-06-17T04:10:10.847Z,73.13
2018-06-17T04:11:10.932Z,78.75
2018-06-17T04:12:11.093Z,73.13
2018-06-17T04:13:11.267Z,73.13
2018-06-17T04:14:11.405Z,67.50
2018-06-17T04:15:11.561Z,61.88
2018-06-17T04:16:11.782Z,61.88
2018-06-17T04:17:11.947Z,67.50
2018-06-17T04:18:12.089Z,67.50
2018-06-17T04:19:12.250Z,73.13
2018-06-17T04:20:12.503Z,78.75
2018-06-17T04:21:12.555Z,84.38
2018-06-17T04:22:12.760Z,84.38
2018-06-17T04:23:12.938Z,84.38
2018-06-17T04:24:13.142Z,90.00
2018-06-17T04:25:13.247Z,95.63
2018-06-17T04:26:13.479Z,101.25
2018-06-17T04:27:13.708Z,101.25
2018-06-17T04:28:13.829Z,106.88
2018-06-17T04:29:13.984Z,106.88
2018-06-17T04:30:14.145Z,112.50
2018-06-17T04:31:14.315Z,123.75
2018-06-17T04:32:14.491Z,140.63
2018-06-17T04:33:14.680Z,151.88
2018-06-17T04:34:14.819Z,163.13
2018-06-17T04:35:14.948Z,163.13
2018-06-17T04:36:15.202Z,163.13
2018-06-17T04:37:15.274Z,163.13
2018-06-17T04:38:15.432Z,157.50
2018-06-17T04:39:15.610Z,140.63
2018-06-17T04:40:15.770Z,135.00
2018-06-17T04:41:16.005Z,140.63
2018-06-17T04:42:16.150Z,151.88
2018-06-17T04:43:16.266Z,157.50
2018-06-17T04:44:16.466Z,163.13
2018-06-17T04:45:16.631Z,151.88
2018-06-17T04:46:16.807Z,146.25
2018-06-17T04:47:16.977Z,140.63
2018-06-17T04:48:17.118Z,129.38
2018-06-17T04:49:17.326Z,118.13
2018-06-17T04:50:17.427Z,106.88
2018-06-17T04:51:17.623Z,101.25
2018-06-17T04:52:17.880Z,95.63
2018-06-17T04:53:18.079Z,95.63
2018-06-17T04:54:18.171Z,95.63
2018-06-17T04:55:18.343Z,112.50
2018-06-17T04:56:18.569Z,129.38
2018-06-17T04:57:18.668Z,140.63
2018-06-17T04:58:18.880Z,157.50
2018-06-17T04:59:19.060Z,163.13
2018-06-17T05:00:19.224Z,157.50
2018-06-17T05:01:19.352Z,157.50
2018-06-17T05:02:19.646Z,157.50
2018-06-17T05:03:19.817Z,163.13
2018-06-17T05:04:19.940Z,174.38
2018-06-17T05:05:20.135Z,180.00
2018-06-17T05:06:20.282Z,180.00
2018-06-17T05:07:20.535Z,180.00
2018-06-17T05:08:20.691Z,185.63
2018-06-17T05:09:20.810Z,185.63
2018-06-17T05:10:21.098Z,196.88
2018-06-17T05:11:21.148Z,202.50
2018-06-17T05:12:21.337Z,202.50
2018-06-17T05:13:21.514Z,202.50
2018-06-17T05:14:21.646Z,213.75
2018-06-17T05:15:21.916Z,225.00
2018-06-17T05:16:22.121Z,230.63
2018-06-17T05:17:22.233Z,236.25
2018-06-17T05:18:22.465Z,247.50
2018-06-17T05:19:22.583Z,258.75
2018-06-17T05:20:22.686Z,270.00
2018-06-17T05:21:22.830Z,275.63
2018-06-17T05:22:23.036Z,281.25
2018-06-17T05:23:23.137Z,286.88
2018-06-17T05:24:23.354Z,286.88
2018-06-17T05:25:23.551Z,281.25
2018-06-17T05:26:23.703Z,281.25
2018-06-17T05:27:23.884Z,292.50
2018-06-17T05:28:24.107Z,298.13
2018-06-17T05:29:24.297Z,286.88
2018-06-17T05:30:24.470Z,270.00
2018-06-17T05:31:24.614Z,258.75
2018-06-17T05:32:24.751Z,253.13
2018-06-17T05:33:24.957Z,247.50
2018-06-17T05:34:25.105Z,241.88
2018-06-17T05:35:25.245Z,236.25
2018-06-17T05:36:25.385Z,225.00
2018-06-17T05:37:25.603Z,213.75
2018-06-17T05:38:25.784Z,202.50
2018-06-17T05:39:25.937Z,202.50
2018-06-17T05:40:26.070Z,196.88
2018-06-17T05:41:26.248Z,202.50
2018-06-17T05:42:26.501Z,208.13
2018-06-17T05:43:26.631Z,213.75
2018-06-17T05:44:26.809Z,225.00
2018-06-17T05:45:27.099Z,247.50
2018-06-17T05:46:27.185Z,253.13
2018-06-17T05:47:27.341Z,253.13
2018-06-17T05:48:27.618Z,230.63
2018-06-17T05:49:27.669Z,213.75
2018-06-17T05:50:27.891Z,202.50
2018-06-17T05:51:28.093Z,196.88
2018-06-17T05:52:28.206Z,208.13
2018-06-17T05:53:28.389Z,219.38
2018-06-17T05:54:28.669Z,241.88
2018-06-17T05:55:28.779Z,270.00
2018-06-17T05:56:28.935Z,292.50
2018-06-17T05:57:29.143Z,320.63
2018-06-17T05:58:29.368Z,331.88
2018-06-17T05:59:29.456Z,348.75
2018-06-17T06:00:29.649Z,354.38
2018-06-17T06:01:29.858Z,371.25
2018-06-17T06:02:30.061Z,376.88
2018-06-17T06:04:30.376Z,365.63
2018-06-17T06:05:30.508Z,348.75
2018-06-17T06:06:30.639Z,331.88
2018-06-17T06:07:30.862Z,320.63
2018-06-17T06:08:31.019Z,298.13
2018-06-17T06:09:31.264Z,303.75
2018-06-17T06:10:31.459Z,309.38
2018-06-17T06:11:31.585Z,320.63
2018-06-17T06:12:31.748Z,348.75
2018-06-17T06:13:32.064Z,360.00
2018-06-17T06:14:32.124Z,365.63
2018-06-17T06:15:32.271Z,348.75
2018-06-17T06:16:32.465Z,326.25
2018-06-17T06:17:32.667Z,315.00
2018-06-17T06:18:32.836Z,320.63
2018-06-17T06:19:33.045Z,331.88
2018-06-17T06:20:33.177Z,348.75
2018-06-17T06:21:33.328Z,360.00
2018-06-17T06:22:33.482Z,365.63
2018-06-17T06:23:33.626Z,371.25
2018-06-17T06:24:33.809Z,382.50
2018-06-17T06:25:33.963Z,382.50
2018-06-17T06:26:34.218Z,371.25
2018-06-17T06:27:34.414Z,365.63
2018-06-17T06:28:34.539Z,354.38
2018-06-17T06:29:34.679Z,354.38
2018-06-17T06:30:34.893Z,360.00
2018-06-17T06:31:35.018Z,365.63
2018-06-17T06:32:35.202Z,371.25
2018-06-17T06:33:35.323Z,371.25
2018-06-17T06:34:35.575Z,365.63
2018-06-17T06:35:35.709Z,360.00
2018-06-17T06:36:35.904Z,326.25
2018-06-17T06:37:36.121Z,298.13
2018-06-17T06:38:36.191Z,275.63
2018-06-17T06:39:36.410Z,270.00
2018-06-17T06:40:36.551Z,258.75
2018-06-17T06:41:36.775Z,258.75
2018-06-17T06:42:36.926Z,275.63
2018-06-17T06:43:37.072Z,286.88
2018-06-17T06:44:37.257Z,309.38
2018-06-17T06:45:37.419Z,360.00
2018-06-17T06:46:37.551Z,399.38
2018-06-17T06:47:37.741Z,438.75
2018-06-17T06:48:37.975Z,455.63
2018-06-17T06:49:38.175Z,478.13
2018-06-17T06:50:38.301Z,466.88
2018-06-17T06:51:38.460Z,461.25
2018-06-17T06:52:38.596Z,483.75
2018-06-17T06:53:38.804Z,523.13
2018-06-17T06:54:39.003Z,590.63
2018-06-17T06:55:39.125Z,635.63
2018-06-17T06:56:39.272Z,624.38
2018-06-17T06:57:39.529Z,624.38
2018-06-17T06:58:39.695Z,607.50
2018-06-17T06:59:39.857Z,635.63
2018-06-17T07:00:40.056Z,630.00
2018-06-17T07:01:40.263Z,601.88
2018-06-17T07:02:40.407Z,596.25
2018-06-17T07:03:40.576Z,562.50
2018-06-17T07:04:40.705Z,495.00
2018-06-17T07:05:40.920Z,472.50
2018-06-17T07:06:41.131Z,483.75
2018-06-17T07:07:41.340Z,528.75
2018-06-17T07:08:41.455Z,551.25
2018-06-17T07:09:41.665Z,551.25
2018-06-17T07:10:41.863Z,540.00
2018-06-17T07:11:42.078Z,483.75
2018-06-17T07:12:42.145Z,438.75
2018-06-17T07:13:42.360Z,455.63
2018-06-17T07:14:42.615Z,483.75
2018-06-17T07:15:42.666Z,478.13
2018-06-17T07:16:42.912Z,483.75
2018-06-17T07:17:42.994Z,500.63
2018-06-17T07:18:43.248Z,517.50
2018-06-17T07:19:43.396Z,523.13
2018-06-17T07:20:43.471Z,534.38
2018-06-17T07:21:43.728Z,511.88
2018-06-17T07:22:43.912Z,455.63
2018-06-17T07:23:44.043Z,483.75
2018-06-17T07:24:44.258Z,399.38
2018-06-17T07:25:44.397Z,393.75
2018-06-17T07:26:44.586Z,495.00
2018-06-17T07:27:44.723Z,489.38
2018-06-17T07:28:44.889Z,478.13
2018-06-17T07:29:45.072Z,517.50
2018-06-17T07:30:45.222Z,523.13
2018-06-17T07:31:45.408Z,528.75
2018-06-17T07:32:45.543Z,534.38
2018-06-17T07:33:45.686Z,534.38
2018-06-17T07:34:45.832Z,534.38
2018-06-17T07:35:46.055Z,534.38
2018-06-17T07:36:46.184Z,500.63
2018-06-17T07:37:46.373Z,511.88
2018-06-17T07:38:46.555Z,506.25
2018-06-17T07:39:46.770Z,495.00
2018-06-17T07:40:46.941Z,506.25
2018-06-17T07:41:47.108Z,495.00
2018-06-17T07:42:47.245Z,427.50
2018-06-17T07:43:47.466Z,438.75
2018-06-17T07:44:47.645Z,528.75
2018-06-17T07:45:47.812Z,416.25
2018-06-17T07:46:47.996Z,461.25
2018-06-17T07:47:48.152Z,472.50
2018-06-17T07:48:48.414Z,455.63
2018-06-17T07:49:48.508Z,461.25
2018-06-17T07:50:48.798Z,500.63
2018-06-17T07:51:48.873Z,517.50
2018-06-17T07:52:49.110Z,568.13
2018-06-17T07:53:49.303Z,472.50
2018-06-17T07:54:49.431Z,495.00
2018-06-17T07:55:49.696Z,517.50
2018-06-17T07:56:49.783Z,399.38
2018-06-17T07:57:49.976Z,495.00
2018-06-17T07:58:50.122Z,495.00
2018-06-17T07:59:50.261Z,438.75
2018-06-17T08:00:50.405Z,489.38
2018-06-17T08:01:50.591Z,421.88
2018-06-17T08:02:50.806Z,421.88
2018-06-17T08:03:50.940Z,427.50
2018-06-17T08:04:51.174Z,517.50
2018-06-17T08:05:51.348Z,523.13
2018-06-17T08:06:51.536Z,528.75
2018-06-17T08:07:51.739Z,495.00
2018-06-17T08:08:51.901Z,568.13
2018-06-17T08:09:52.006Z,585.00
2018-06-17T08:10:52.203Z,618.75
2018-06-17T08:11:52.381Z,635.63
2018-06-17T08:12:52.469Z,641.25
2018-06-17T08:13:52.639Z,607.50
2018-06-17T08:14:52.868Z,798.75
2018-06-17T08:15:52.990Z,832.50
2018-06-17T08:16:53.260Z,776.25
2018-06-17T08:17:53.392Z,748.13
2018-06-17T08:18:53.556Z,562.50
2018-06-17T08:19:53.743Z,523.13
2018-06-17T08:20:53.816Z,500.63
2018-06-17T08:21:54.817Z,669.38
2018-06-17T08:22:54.261Z,663.75
2018-06-17T08:23:54.481Z,798.75
2018-06-17T08:24:54.650Z,849.38
2018-06-17T08:25:54.834Z,871.88
2018-06-17T08:26:54.938Z,669.38
2018-06-17T08:27:55.154Z,686.25
2018-06-17T08:28:55.362Z,900.00
2018-06-17T08:29:55.451Z,686.25
2018-06-17T08:30:55.690Z,720.00
2018-06-17T08:31:55.862Z,736.88
2018-06-17T08:32:56.013Z,742.50
2018-06-17T08:33:56.238Z,731.25
2018-06-17T08:34:56.422Z,708.75
2018-06-17T08:35:56.578Z,691.88
2018-06-17T08:36:56.814Z,703.13
2018-06-17T08:37:56.982Z,708.75
2018-06-17T08:38:57.047Z,855.00
2018-06-17T08:39:57.260Z,877.50
2018-06-17T08:40:57.496Z,888.75
2018-06-17T08:41:57.595Z,855.00
2018-06-17T08:42:57.739Z,804.38
2018-06-17T08:43:57.897Z,646.88
2018-06-17T08:44:58.163Z,590.63
2018-06-17T08:45:58.305Z,556.88
2018-06-17T08:46:58.512Z,545.63
2018-06-17T08:47:58.623Z,556.88
2018-06-17T08:48:58.849Z,585.00
2018-06-17T08:49:58.984Z,624.38
2018-06-17T08:50:59.140Z,680.63
2018-06-17T08:51:59.365Z,736.88
2018-06-17T08:52:59.470Z,776.25
2018-06-17T08:53:59.679Z,815.63
2018-06-17T08:54:59.931Z,905.63
2018-06-17T08:56:00.077Z,826.88
2018-06-17T08:57:00.178Z,748.13
2018-06-17T08:58:00.425Z,736.88
2018-06-17T08:59:00.511Z,815.63
2018-06-17T09:00:00.669Z,787.50
2018-06-17T09:01:00.864Z,793.13
2018-06-17T09:02:01.036Z,798.75
2018-06-17T09:03:01.161Z,810.00
2018-06-17T09:04:01.458Z,815.63
2018-06-17T09:05:01.615Z,804.38
2018-06-17T09:06:01.747Z,787.50
2018-06-17T09:07:01.918Z,759.38
2018-06-17T09:08:02.119Z,641.25
2018-06-17T09:09:02.295Z,646.88
2018-06-17T09:10:02.421Z,686.25
2018-06-17T09:11:02.593Z,838.13
2018-06-17T09:12:02.770Z,939.38
2018-06-17T09:13:02.963Z,905.63
2018-06-17T09:14:03.149Z,950.63
2018-06-17T09:15:03.296Z,967.50
2018-06-17T09:16:03.474Z,984.38
2018-06-17T09:17:03.663Z,1006.88
2018-06-17T09:18:03.803Z,978.75
2018-06-17T09:19:03.922Z,900.00
2018-06-17T09:20:04.127Z,720.00
2018-06-17T09:21:04.303Z,703.13
2018-06-17T09:22:04.408Z,697.50
2018-06-17T09:23:04.598Z,708.75
2018-06-17T09:24:04.776Z,691.88
2018-06-17T09:25:04.966Z,646.88
2018-06-17T09:26:05.103Z,590.63
2018-06-17T09:27:05.297Z,568.13
2018-06-17T09:28:05.474Z,551.25
2018-06-17T09:29:05.635Z,556.88
2018-06-17T09:30:05.819Z,573.75
2018-06-17T09:31:05.931Z,601.88
2018-06-17T09:32:06.193Z,641.25
2018-06-17T09:33:06.286Z,675.00
2018-06-17T09:34:06.455Z,736.88
2018-06-17T09:35:06.631Z,781.88
2018-06-17T09:36:06.774Z,826.88
2018-06-17T09:37:07.033Z,888.75
2018-06-17T09:38:07.206Z,928.13
2018-06-17T09:39:07.306Z,1018.13
2018-06-17T09:40:07.459Z,1102.50
2018-06-17T09:41:07.647Z,1068.75
2018-06-17T09:42:07.846Z,978.75
2018-06-17T09:43:08.076Z,843.75
2018-06-17T09:44:08.411Z,742.50
2018-06-17T09:45:08.321Z,635.63
2018-06-17T09:46:08.446Z,579.38
2018-06-17T09:47:08.651Z,568.13
2018-06-17T09:48:08.996Z,579.38
2018-06-17T09:49:09.116Z,613.13
2018-06-17T09:50:09.238Z,652.50
2018-06-17T09:51:09.464Z,675.00
2018-06-17T09:52:09.592Z,703.13
2018-06-17T09:53:09.737Z,725.63
2018-06-17T09:54:09.964Z,753.75
2018-06-17T09:55:10.076Z,787.50
2018-06-17T09:56:10.351Z,787.50
2018-06-17T09:57:10.474Z,821.25
2018-06-17T09:58:10.773Z,978.75
2018-06-17T09:59:10.850Z,990.00
2018-06-17T10:00:11.157Z,1018.13
2018-06-17T10:01:11.222Z,1012.50
2018-06-17T10:02:11.393Z,1001.25
2018-06-17T10:03:11.496Z,1035.00
2018-06-17T10:04:11.676Z,1102.50
2018-06-17T10:05:11.839Z,1141.88
2018-06-17T10:06:12.105Z,1192.50
2018-06-17T10:07:12.303Z,1305.00
2018-06-17T10:08:12.412Z,1704.38
2018-06-17T10:09:12.619Z,961.88
2018-06-17T10:10:12.857Z,911.25
2018-06-17T10:11:12.975Z,866.25
2018-06-17T10:12:13.262Z,815.63
2018-06-17T10:13:13.371Z,776.25
2018-06-17T10:14:13.500Z,725.63
2018-06-17T10:15:13.672Z,601.88
2018-06-17T10:16:13.862Z,545.63
2018-06-17T10:17:14.073Z,540.00
2018-06-17T10:18:14.236Z,540.00
2018-06-17T10:19:14.354Z,528.75
2018-06-17T10:20:14.555Z,517.50
2018-06-17T10:21:14.863Z,506.25
2018-06-17T10:22:14.981Z,500.63
2018-06-17T10:23:15.078Z,517.50
2018-06-17T10:24:15.300Z,545.63
2018-06-17T10:25:15.357Z,585.00
2018-06-17T10:26:15.538Z,613.13
2018-06-17T10:27:15.681Z,646.88
2018-06-17T10:28:15.935Z,675.00
2018-06-17T10:29:16.113Z,697.50
2018-06-17T10:30:16.172Z,725.63
2018-06-17T10:31:16.441Z,753.75
2018-06-17T10:32:16.678Z,804.38
2018-06-17T10:33:16.776Z,860.63
2018-06-17T10:34:16.943Z,916.88
2018-06-17T10:35:17.107Z,967.50
2018-06-17T10:36:17.242Z,995.63
2018-06-17T10:37:17.450Z,1029.38
2018-06-17T10:38:17.572Z,1783.13
2018-06-17T10:39:17.799Z,843.75
2018-06-17T10:40:18.046Z,680.63
2018-06-17T10:41:18.163Z,596.25
2018-06-17T10:42:18.328Z,528.75
2018-06-17T10:43:18.487Z,461.25
2018-06-17T10:44:18.686Z,405.00
2018-06-17T10:45:18.803Z,371.25
2018-06-17T10:46:19.050Z,343.13
2018-06-17T10:47:19.231Z,337.50
2018-06-17T10:48:19.443Z,331.88
2018-06-17T10:49:19.617Z,337.50
2018-06-17T10:50:19.790Z,365.63
2018-06-17T10:51:19.975Z,399.38
2018-06-17T10:52:20.143Z,421.88
2018-06-17T10:53:20.243Z,450.00
2018-06-17T10:54:20.493Z,478.13
2018-06-17T10:55:20.647Z,506.25
2018-06-17T10:56:20.807Z,540.00
2018-06-17T10:57:21.067Z,596.25
2018-06-17T10:58:21.222Z,652.50
2018-06-17T10:59:21.407Z,703.13
2018-06-17T11:00:21.444Z,736.88
2018-06-17T11:01:21.713Z,770.63
2018-06-17T11:02:21.863Z,804.38
2018-06-17T11:03:22.092Z,821.25
2018-06-17T11:04:22.286Z,883.13
2018-06-17T11:05:22.442Z,905.63
2018-06-17T11:06:22.612Z,1248.75
2018-06-17T11:07:22.730Z,916.88
2018-06-17T11:08:22.985Z,871.88
2018-06-17T11:09:23.104Z,849.38
2018-06-17T11:10:23.269Z,843.75
2018-06-17T11:11:23.423Z,866.25
2018-06-17T11:12:23.543Z,883.13
2018-06-17T11:13:23.854Z,871.88
2018-06-17T11:14:24.013Z,894.38
2018-06-17T11:15:24.080Z,916.88
2018-06-17T11:16:24.364Z,933.75
2018-06-17T11:17:24.600Z,956.25
2018-06-17T11:18:24.698Z,984.38
2018-06-17T11:19:24.908Z,1018.13
2018-06-17T11:20:25.025Z,1119.38
2018-06-17T11:21:25.251Z,1096.88
2018-06-17T11:22:25.440Z,1141.88
2018-06-17T11:23:25.662Z,1265.63
2018-06-17T11:24:25.762Z,1175.63
2018-06-17T11:25:25.872Z,1231.88
2018-06-17T11:26:26.076Z,1237.50
2018-06-17T11:27:26.291Z,1276.88
2018-06-17T11:28:26.506Z,1350.00
2018-06-17T11:29:26.710Z,1445.63
2018-06-17T11:30:26.792Z,3802.50
2018-06-17T11:31:26.972Z,1659.38
2018-06-17T11:32:27.150Z,3836.25
2018-06-17T11:33:27.410Z,1591.88
2018-06-17T11:34:27.547Z,1479.38
2018-06-17T11:35:27.725Z,1293.75
2018-06-17T11:36:27.860Z,1327.50
2018-06-17T11:37:28.094Z,1411.88
2018-06-17T11:38:28.281Z,1316.25
2018-06-17T11:39:28.372Z,1293.75
2018-06-17T11:40:28.541Z,1546.88
2018-06-17T11:41:28.657Z,2604.38
2018-06-17T11:42:28.885Z,1991.25
2018-06-17T11:43:29.034Z,2064.38
2018-06-17T11:44:29.161Z,2435.63
2018-06-17T11:45:29.362Z,1771.88
2018-06-17T11:46:29.554Z,1620.00
2018-06-17T11:47:29.708Z,1507.50
2018-06-17T11:48:29.913Z,2840.63
2018-06-17T11:49:30.083Z,1524.38
2018-06-17T11:50:30.297Z,1535.63
2018-06-17T11:51:30.451Z,1558.13
2018-06-17T11:52:30.623Z,1440.00
2018-06-17T11:53:30.822Z,1490.63
2018-06-17T11:54:30.920Z,1321.88
2018-06-17T11:55:31.123Z,1321.88
2018-06-17T11:56:31.419Z,1372.50
2018-06-17T11:57:31.580Z,1535.63
2018-06-17T11:58:31.783Z,1299.38
2018-06-17T11:59:31.925Z,1198.13
2018-06-17T12:00:32.101Z,1136.25
2018-06-17T12:01:32.206Z,1091.25
2018-06-17T12:02:32.366Z,1096.88
2018-06-17T12:03:32.614Z,1102.50
2018-06-17T12:04:32.735Z,1113.75
2018-06-17T12:05:32.982Z,1215.00
2018-06-17T12:06:33.148Z,1552.50
2018-06-17T12:07:33.283Z,1237.50
2018-06-17T12:08:33.438Z,1338.75
2018-06-17T12:09:33.788Z,1755.00
2018-06-17T12:10:33.888Z,1653.75
2018-06-17T12:11:33.982Z,1923.75
2018-06-17T12:12:34.203Z,1040.63
2018-06-17T12:13:34.369Z,973.13
2018-06-17T12:14:34.528Z,922.50
2018-06-17T12:15:34.713Z,883.13
2018-06-17T12:16:34.841Z,860.63
2018-06-17T12:17:35.087Z,849.38
2018-06-17T12:18:35.232Z,860.63
2018-06-17T12:19:35.399Z,888.75
2018-06-17T12:20:35.584Z,950.63
2018-06-17T12:21:35.690Z,1051.88
2018-06-17T12:22:35.843Z,1170.00
2018-06-17T12:23:36.088Z,1771.88
2018-06-17T12:24:36.285Z,1310.63
2018-06-17T12:25:36.369Z,1299.38
2018-06-17T12:26:36.580Z,1575.00
2018-06-17T12:27:36.786Z,1288.13
2018-06-17T12:28:36.976Z,1333.13
2018-06-17T12:29:37.141Z,1845.00
2018-06-17T12:30:37.257Z,1417.50
2018-06-17T12:31:37.424Z,4432.50
2018-06-17T12:32:37.592Z,4471.88
2018-06-17T12:33:37.823Z,4432.50
2018-06-17T12:34:37.886Z,4320.00
2018-06-17T12:35:38.139Z,3976.88
2018-06-17T12:36:38.311Z,4438.13
2018-06-17T12:37:38.462Z,1957.50
2018-06-17T12:38:38.690Z,2930.63
2018-06-17T12:39:38.798Z,1811.25
2018-06-17T12:40:38.972Z,1226.25
2018-06-17T12:41:39.124Z,1164.38
2018-06-17T12:42:39.359Z,1096.88
2018-06-17T12:43:39.530Z,1029.38
2018-06-17T12:44:39.636Z,1012.50
2018-06-17T12:45:39.848Z,1035.00
2018-06-17T12:46:40.027Z,1051.88
2018-06-17T12:47:40.292Z,1085.63
2018-06-17T12:48:40.467Z,1029.38
2018-06-17T12:49:40.721Z,1012.50
2018-06-17T12:50:40.847Z,978.75
2018-06-17T12:51:41.075Z,900.00
2018-06-17T12:52:41.249Z,1091.25
2018-06-17T12:53:41.396Z,2666.25
2018-06-17T12:54:41.503Z,894.38
2018-06-17T12:55:41.756Z,2767.50
2018-06-17T12:56:41.866Z,2626.88
2018-06-17T12:57:42.113Z,1580.63
2018-06-17T12:58:42.264Z,776.25
2018-06-17T12:59:42.419Z,697.50
2018-06-17T13:00:42.675Z,635.63
2018-06-17T13:01:42.838Z,579.38
2018-06-17T13:02:42.997Z,528.75
2018-06-17T13:03:43.216Z,489.38
2018-06-17T13:04:43.389Z,489.38
2018-06-17T13:05:43.581Z,528.75
2018-06-17T13:06:43.695Z,579.38
2018-06-17T13:07:43.959Z,624.38
2018-06-17T13:08:44.065Z,675.00
2018-06-17T13:09:44.228Z,742.50
2018-06-17T13:10:44.416Z,804.38
2018-06-17T13:11:44.648Z,866.25
2018-06-17T13:12:44.807Z,945.00
2018-06-17T13:13:45.017Z,990.00
2018-06-17T13:14:45.193Z,1051.88
2018-06-17T13:15:45.342Z,1186.88
2018-06-17T13:16:45.510Z,1293.75
2018-06-17T13:17:45.705Z,1389.38
2018-06-17T13:18:45.950Z,1749.38
2018-06-17T13:19:46.090Z,3605.63
2018-06-17T13:20:46.287Z,3898.13
2018-06-17T13:21:46.368Z,3003.75
2018-06-17T13:22:46.572Z,1372.50
2018-06-17T13:23:46.715Z,1839.38
2018-06-17T13:24:47.007Z,3037.50
2018-06-17T13:25:47.121Z,3150.00
2018-06-17T13:26:47.368Z,3110.63
2018-06-17T13:27:47.539Z,2801.25
2018-06-17T13:28:47.682Z,3093.75
2018-06-17T13:29:48.000Z,2835.00
2018-06-17T13:30:48.108Z,3403.13
2018-06-17T13:31:48.442Z,3825.00
2018-06-17T13:32:48.479Z,3774.38
2018-06-17T13:33:48.703Z,3420.00
2018-06-17T13:34:48.848Z,3121.88
2018-06-17T13:35:49.034Z,950.63
2018-06-17T13:36:49.167Z,1040.63
2018-06-17T13:37:49.357Z,1321.88
2018-06-17T13:38:49.545Z,967.50
2018-06-17T13:39:49.750Z,798.75
2018-06-17T13:40:49.999Z,843.75
2018-06-17T13:41:50.112Z,894.38
2018-06-17T13:42:50.441Z,984.38
2018-06-17T13:43:50.442Z,1130.63
2018-06-17T13:44:50.703Z,2880.00
2018-06-17T13:45:50.871Z,3470.63
2018-06-17T13:46:51.113Z,2013.75
2018-06-17T13:47:51.152Z,3785.63
2018-06-17T13:48:51.351Z,1355.63
2018-06-17T13:49:51.472Z,1310.63
2018-06-17T13:50:51.727Z,1260.00
2018-06-17T13:51:51.893Z,1271.25
2018-06-17T13:52:52.080Z,1203.75
2018-06-17T13:53:52.251Z,1248.75
2018-06-17T13:54:52.357Z,2857.50
2018-06-17T13:55:52.628Z,1243.13
2018-06-17T13:56:52.713Z,1018.13
2018-06-17T13:57:52.887Z,984.38
2018-06-17T13:58:53.151Z,950.63
2018-06-17T13:59:53.214Z,916.88
2018-06-17T14:00:53.574Z,905.63
2018-06-17T14:01:53.693Z,871.88
2018-06-17T14:02:53.767Z,871.88
2018-06-17T14:03:53.946Z,1181.25
2018-06-17T14:04:54.145Z,961.88
2018-06-17T14:05:54.309Z,945.00
2018-06-17T14:06:54.573Z,939.38
2018-06-17T14:07:54.676Z,950.63
2018-06-17T14:08:54.803Z,984.38
2018-06-17T14:09:55.051Z,1040.63
2018-06-17T14:10:55.258Z,1220.63
2018-06-17T14:11:55.379Z,1771.88
2018-06-17T14:12:55.578Z,2919.38
2018-06-17T14:13:55.741Z,2615.63
2018-06-17T14:14:55.956Z,3324.38
2018-06-17T14:15:56.071Z,2373.75
2018-06-17T14:16:56.284Z,1890.00
2018-06-17T14:17:56.402Z,1805.63
2018-06-17T14:18:56.563Z,1816.88
2018-06-17T14:19:56.722Z,1715.63
2018-06-17T14:20:56.898Z,1648.13
2018-06-17T14:21:57.083Z,1867.50
2018-06-17T14:22:57.307Z,1923.75
2018-06-17T14:23:57.517Z,1946.25
2018-06-17T14:24:57.680Z,1856.25
2018-06-17T14:25:57.829Z,1951.88
2018-06-17T14:26:57.986Z,2019.38
2018-06-17T14:27:58.183Z,2446.88
2018-06-17T14:28:58.479Z,2660.63
2018-06-17T14:29:58.586Z,1906.88
2018-06-17T14:30:58.705Z,1462.50
2018-06-17T14:31:58.978Z,1383.75
2018-06-17T14:32:59.137Z,1237.50
2018-06-17T14:33:59.245Z,990.00
2018-06-17T14:34:59.502Z,1406.25
2018-06-17T14:35:59.677Z,1366.88
2018-06-17T14:36:59.822Z,1175.63
2018-06-17T14:38:00.090Z,1040.63
2018-06-17T14:39:00.218Z,995.63
2018-06-17T14:40:00.380Z,945.00
2018-06-17T14:41:00.561Z,916.88
2018-06-17T14:42:00.712Z,956.25
2018-06-17T14:43:00.869Z,1276.88
2018-06-17T14:44:01.035Z,1215.00
2018-06-17T14:45:01.250Z,1378.13
2018-06-17T14:46:01.431Z,1209.38
2018-06-17T14:47:01.561Z,1074.38
2018-06-17T14:48:01.713Z,1035.00
2018-06-17T14:49:01.911Z,1265.63
2018-06-17T14:50:02.133Z,1276.88
2018-06-17T14:51:02.282Z,1254.38
2018-06-17T14:52:02.467Z,877.50
2018-06-17T14:53:02.622Z,978.75
2018-06-17T14:54:02.779Z,888.75
2018-06-17T14:55:03.029Z,742.50
2018-06-17T14:56:03.234Z,669.38
2018-06-17T14:57:03.386Z,630.00
2018-06-17T14:58:03.561Z,596.25
2018-06-17T14:59:03.708Z,568.13
2018-06-17T15:00:03.870Z,545.63
2018-06-17T15:01:04.035Z,534.38
2018-06-17T15:02:04.285Z,540.00
2018-06-17T15:03:04.423Z,540.00
2018-06-17T15:04:04.587Z,556.88
2018-06-17T15:05:04.739Z,590.63
2018-06-17T15:06:04.955Z,635.63
2018-06-17T15:07:05.077Z,742.50
2018-06-17T15:08:05.237Z,748.13
2018-06-17T15:09:05.476Z,860.63
2018-06-17T15:10:05.636Z,900.00
2018-06-17T15:11:05.836Z,1040.63
2018-06-17T15:12:06.054Z,1119.38
2018-06-17T15:13:06.222Z,1265.63
2018-06-17T15:14:06.412Z,1496.25
2018-06-17T15:15:06.540Z,1805.63
2018-06-17T15:16:06.711Z,1338.75
2018-06-17T15:17:06.908Z,1389.38
2018-06-17T15:18:07.068Z,1434.38
2018-06-17T15:19:07.307Z,1271.25
2018-06-17T15:20:07.525Z,2137.50
2018-06-17T15:21:07.636Z,1884.38
2018-06-17T15:22:07.837Z,1198.13
2018-06-17T15:23:08.040Z,1153.13
2018-06-17T15:24:08.239Z,1035.00
2018-06-17T15:25:08.477Z,1006.88
2018-06-17T15:26:08.577Z,973.13
2018-06-17T15:27:08.784Z,1063.13
2018-06-17T15:28:08.887Z,1085.63
2018-06-17T15:29:09.104Z,1102.50
2018-06-17T15:30:09.264Z,1243.13